Página principal
METAR-TAF:

METAR-TAF

Aeroportos :

Aeródromo Municipal de Cascais (Tires)

Cascais, Portugal

latitude: 38-43-32N, longitude: 009-21-19W, altura: 99 m

Observação actual do tempo

O boletim foi feito há 21 minutos, às 14:00 UTC
Vento 9 kt de es-sudeste
Temperatura 20°C
Humidade 64%
Pressão 1013 hPa
Visibilidade 10 km ou mais
Poucas nuvensa uma altura de 2700 ft

METAR: LPCS 151400Z 12009KT 9999 FEW027 20/13 Q1013

Hora: 14:21 (14:21 UTC)

Previsão

O boletim foi feito há 3 horas e 21 minutos, às 11:00 UTC
Previsão válida de 15 às 12 UTC a 15 às 21 UTC
Vento 10 kt de este
Visibilidade 10 km ou mais
Poucas nuvensa uma altura de 3500 ft
Tornando-se
de 15 às 18 UTC a 15 às 21 UTC
Vento 3 kt com direcção variável

TAF: LPCS 151100Z 1512/1521 10010KT 9999 FEW035 BECMG 1518/1521 VRB03KT

Observações e previsões do tempo de mais de 4000 aeroportos (mensagens METAR e TAF).

As estações disponíveis são os pontos amarelos e vermelhos sobre o mapa.

Mova o rato sobre o mapa para ver o nome da estação.

Depois clique no ponto para visualizar as observações e previsões meteorológicas.

Para alterar o mapa : clique nos botões verdes com uma cruz preta para aumentar o zoom; no botão verde com uma pitada de zoom; ou nas setas verdes para mapas adjacentes.


METAR-TAF: